sensor_id;sensor_type;location;lat;lon;timestamp;P1;durP1;ratioP1;P2;durP2;ratioP2
2011;SDS011;1009;51.436;6.972;2023-04-07T00:00:06;30.00;;;26.80;;
2011;SDS011;1009;51.436;6.972;2023-04-07T00:02:33;33.70;;;28.30;;
2011;SDS011;1009;51.436;6.972;2023-04-07T00:05:00;30.53;;;26.20;;
2011;SDS011;1009;51.436;6.972;2023-04-07T00:07:27;31.00;;;24.50;;
2011;SDS011;1009;51.436;6.972;2023-04-07T00:09:55;33.37;;;25.27;;
2011;SDS011;1009;51.436;6.972;2023-04-07T00:12:22;31.30;;;25.07;;
2011;SDS011;1009;51.436;6.972;2023-04-07T00:14:49;33.30;;;29.63;;
2011;SDS011;1009;51.436;6.972;2023-04-07T00:17:15;36.00;;;29.33;;
2011;SDS011;1009;51.436;6.972;2023-04-07T00:19:42;34.83;;;28.97;;
2011;SDS011;1009;51.436;6.972;2023-04-07T00:22:09;30.27;;;24.67;;
2011;SDS011;1009;51.436;6.972;2023-04-07T00:24:35;36.10;;;29.43;;
2011;SDS011;1009;51.436;6.972;2023-04-07T00:27:03;38.80;;;29.43;;
2011;SDS011;1009;51.436;6.972;2023-04-07T00:29:30;35.40;;;30.50;;
2011;SDS011;1009;51.436;6.972;2023-04-07T00:31:57;35.23;;;25.87;;
2011;SDS011;1009;51.436;6.972;2023-04-07T00:34:23;36.57;;;30.23;;
2011;SDS011;1009;51.436;6.972;2023-04-07T00:36:50;38.30;;;27.73;;
2011;SDS011;1009;51.436;6.972;2023-04-07T00:39:17;40.67;;;31.70;;
2011;SDS011;1009;51.436;6.972;2023-04-07T00:41:44;33.73;;;24.40;;
2011;SDS011;1009;51.436;6.972;2023-04-07T00:44:13;38.77;;;26.40;;
2011;SDS011;1009;51.436;6.972;2023-04-07T00:46:40;35.97;;;25.53;;
2011;SDS011;1009;51.436;6.972;2023-04-07T00:49:07;41.33;;;28.43;;
2011;SDS011;1009;51.436;6.972;2023-04-07T00:51:33;40.17;;;27.10;;
2011;SDS011;1009;51.436;6.972;2023-04-07T00:54:00;44.90;;;27.33;;
2011;SDS011;1009;51.436;6.972;2023-04-07T00:56:27;37.93;;;27.13;;
2011;SDS011;1009;51.436;6.972;2023-04-07T00:58:54;36.57;;;26.33;;
2011;SDS011;1009;51.436;6.972;2023-04-07T01:01:23;41.43;;;30.67;;
2011;SDS011;1009;51.436;6.972;2023-04-07T01:03:56;45.87;;;33.53;;
2011;SDS011;1009;51.436;6.972;2023-04-07T01:06:27;43.80;;;29.10;;
2011;SDS011;1009;51.436;6.972;2023-04-07T01:08:57;43.93;;;30.23;;
2011;SDS011;1009;51.436;6.972;2023-04-07T01:11:29;51.70;;;29.50;;
2011;SDS011;1009;51.436;6.972;2023-04-07T01:14:02;49.43;;;35.30;;
2011;SDS011;1009;51.436;6.972;2023-04-07T01:16:31;52.27;;;32.20;;
2011;SDS011;1009;51.436;6.972;2023-04-07T01:19:03;46.80;;;31.20;;
2011;SDS011;1009;51.436;6.972;2023-04-07T01:21:41;60.90;;;30.67;;
2011;SDS011;1009;51.436;6.972;2023-04-07T01:24:16;49.17;;;36.23;;
2011;SDS011;1009;51.436;6.972;2023-04-07T01:26:53;46.83;;;30.70;;
2011;SDS011;1009;51.436;6.972;2023-04-07T01:29:33;53.20;;;32.87;;
2011;SDS011;1009;51.436;6.972;2023-04-07T01:32:05;45.73;;;33.20;;
2011;SDS011;1009;51.436;6.972;2023-04-07T01:34:35;52.13;;;29.70;;
2011;SDS011;1009;51.436;6.972;2023-04-07T01:37:03;45.90;;;30.50;;
2011;SDS011;1009;51.436;6.972;2023-04-07T01:39:31;45.73;;;28.83;;
2011;SDS011;1009;51.436;6.972;2023-04-07T01:41:59;47.97;;;31.83;;
2011;SDS011;1009;51.436;6.972;2023-04-07T01:44:29;46.37;;;30.47;;
2011;SDS011;1009;51.436;6.972;2023-04-07T01:46:59;45.37;;;31.83;;
2011;SDS011;1009;51.436;6.972;2023-04-07T01:49:27;49.67;;;29.93;;
2011;SDS011;1009;51.436;6.972;2023-04-07T01:51:55;52.90;;;31.60;;
2011;SDS011;1009;51.436;6.972;2023-04-07T01:54:23;46.07;;;34.00;;
2011;SDS011;1009;51.436;6.972;2023-04-07T01:56:51;43.33;;;26.93;;
2011;SDS011;1009;51.436;6.972;2023-04-07T01:59:17;47.77;;;34.30;;
2011;SDS011;1009;51.436;6.972;2023-04-07T02:01:45;45.50;;;29.17;;
2011;SDS011;1009;51.436;6.972;2023-04-07T02:04:15;45.27;;;33.67;;
2011;SDS011;1009;51.436;6.972;2023-04-07T02:06:50;45.13;;;29.07;;
2011;SDS011;1009;51.436;6.972;2023-04-07T02:09:20;41.90;;;26.93;;
2011;SDS011;1009;51.436;6.972;2023-04-07T02:11:49;49.33;;;29.07;;
2011;SDS011;1009;51.436;6.972;2023-04-07T02:14:17;46.40;;;29.30;;
2011;SDS011;1009;51.436;6.972;2023-04-07T02:16:49;45.17;;;30.03;;
2011;SDS011;1009;51.436;6.972;2023-04-07T02:19:17;47.00;;;28.60;;
2011;SDS011;1009;51.436;6.972;2023-04-07T02:21:45;49.07;;;29.03;;
2011;SDS011;1009;51.436;6.972;2023-04-07T02:24:13;51.07;;;30.73;;
2011;SDS011;1009;51.436;6.972;2023-04-07T02:26:44;53.53;;;34.03;;
2011;SDS011;1009;51.436;6.972;2023-04-07T02:29:11;47.20;;;29.93;;
2011;SDS011;1009;51.436;6.972;2023-04-07T02:31:38;61.50;;;36.40;;
2011;SDS011;1009;51.436;6.972;2023-04-07T02:34:06;50.23;;;29.77;;
2011;SDS011;1009;51.436;6.972;2023-04-07T02:36:33;50.73;;;30.77;;
2011;SDS011;1009;51.436;6.972;2023-04-07T02:39:00;52.83;;;30.80;;
2011;SDS011;1009;51.436;6.972;2023-04-07T02:41:27;54.33;;;31.83;;
2011;SDS011;1009;51.436;6.972;2023-04-07T02:43:54;58.30;;;35.33;;
2011;SDS011;1009;51.436;6.972;2023-04-07T02:46:21;59.77;;;30.93;;
2011;SDS011;1009;51.436;6.972;2023-04-07T02:48:47;60.00;;;36.27;;
2011;SDS011;1009;51.436;6.972;2023-04-07T02:51:15;57.73;;;31.50;;
2011;SDS011;1009;51.436;6.972;2023-04-07T02:53:42;63.50;;;35.00;;
2011;SDS011;1009;51.436;6.972;2023-04-07T02:56:09;38.87;;;22.80;;
2011;SDS011;1009;51.436;6.972;2023-04-07T02:58:35;80.97;;;40.40;;
2011;SDS011;1009;51.436;6.972;2023-04-07T03:01:02;72.00;;;37.43;;
2011;SDS011;1009;51.436;6.972;2023-04-07T03:03:29;87.83;;;43.40;;
2011;SDS011;1009;51.436;6.972;2023-04-07T03:05:56;79.70;;;34.40;;
2011;SDS011;1009;51.436;6.972;2023-04-07T03:08:24;70.97;;;37.90;;
2011;SDS011;1009;51.436;6.972;2023-04-07T03:10:51;69.40;;;33.73;;
2011;SDS011;1009;51.436;6.972;2023-04-07T03:13:19;71.97;;;34.43;;
2011;SDS011;1009;51.436;6.972;2023-04-07T03:15:46;78.97;;;40.87;;
2011;SDS011;1009;51.436;6.972;2023-04-07T03:18:13;84.20;;;36.17;;
2011;SDS011;1009;51.436;6.972;2023-04-07T03:20:39;71.03;;;35.63;;
2011;SDS011;1009;51.436;6.972;2023-04-07T03:23:06;86.10;;;36.67;;
2011;SDS011;1009;51.436;6.972;2023-04-07T03:25:35;92.53;;;42.03;;
2011;SDS011;1009;51.436;6.972;2023-04-07T03:28:01;85.30;;;38.40;;
2011;SDS011;1009;51.436;6.972;2023-04-07T03:30:28;94.20;;;37.00;;
2011;SDS011;1009;51.436;6.972;2023-04-07T03:32:55;89.40;;;38.20;;
2011;SDS011;1009;51.436;6.972;2023-04-07T03:35:21;88.57;;;39.90;;
2011;SDS011;1009;51.436;6.972;2023-04-07T03:37:48;112.57;;;40.03;;
2011;SDS011;1009;51.436;6.972;2023-04-07T03:40:15;84.07;;;38.23;;
2011;SDS011;1009;51.436;6.972;2023-04-07T03:42:44;97.67;;;37.50;;
2011;SDS011;1009;51.436;6.972;2023-04-07T03:45:11;81.97;;;36.60;;
2011;SDS011;1009;51.436;6.972;2023-04-07T03:47:37;73.83;;;33.27;;
2011;SDS011;1009;51.436;6.972;2023-04-07T03:50:05;75.40;;;32.27;;
2011;SDS011;1009;51.436;6.972;2023-04-07T03:52:32;71.50;;;31.43;;
2011;SDS011;1009;51.436;6.972;2023-04-07T03:54:59;72.60;;;33.00;;
2011;SDS011;1009;51.436;6.972;2023-04-07T03:57:26;60.40;;;29.60;;
2011;SDS011;1009;51.436;6.972;2023-04-07T03:59:54;54.13;;;26.03;;
2011;SDS011;1009;51.436;6.972;2023-04-07T04:02:20;57.67;;;29.50;;
2011;SDS011;1009;51.436;6.972;2023-04-07T04:04:47;64.87;;;27.10;;
2011;SDS011;1009;51.436;6.972;2023-04-07T04:07:14;51.40;;;26.10;;
2011;SDS011;1009;51.436;6.972;2023-04-07T04:09:40;54.70;;;26.30;;
2011;SDS011;1009;51.436;6.972;2023-04-07T04:12:07;50.63;;;22.40;;
2011;SDS011;1009;51.436;6.972;2023-04-07T04:14:34;57.63;;;22.70;;
2011;SDS011;1009;51.436;6.972;2023-04-07T04:17:02;53.40;;;23.90;;
2011;SDS011;1009;51.436;6.972;2023-04-07T04:19:28;52.00;;;26.87;;
2011;SDS011;1009;51.436;6.972;2023-04-07T04:21:55;51.00;;;22.10;;
2011;SDS011;1009;51.436;6.972;2023-04-07T04:24:22;53.60;;;24.17;;
2011;SDS011;1009;51.436;6.972;2023-04-07T04:26:49;56.93;;;27.73;;
2011;SDS011;1009;51.436;6.972;2023-04-07T04:29:15;59.17;;;25.43;;
2011;SDS011;1009;51.436;6.972;2023-04-07T04:31:42;48.67;;;24.50;;
2011;SDS011;1009;51.436;6.972;2023-04-07T04:34:10;54.50;;;25.03;;
2011;SDS011;1009;51.436;6.972;2023-04-07T04:36:37;52.30;;;23.03;;
2011;SDS011;1009;51.436;6.972;2023-04-07T04:39:04;53.00;;;26.93;;
2011;SDS011;1009;51.436;6.972;2023-04-07T04:41:31;52.90;;;25.83;;
2011;SDS011;1009;51.436;6.972;2023-04-07T04:43:57;59.20;;;25.43;;
2011;SDS011;1009;51.436;6.972;2023-04-07T04:46:24;57.03;;;27.37;;
2011;SDS011;1009;51.436;6.972;2023-04-07T04:48:51;59.73;;;26.67;;
2011;SDS011;1009;51.436;6.972;2023-04-07T04:51:19;52.43;;;25.70;;
2011;SDS011;1009;51.436;6.972;2023-04-07T04:53:46;47.50;;;23.80;;
2011;SDS011;1009;51.436;6.972;2023-04-07T04:56:12;49.37;;;26.10;;
2011;SDS011;1009;51.436;6.972;2023-04-07T04:58:39;53.27;;;24.03;;
2011;SDS011;1009;51.436;6.972;2023-04-07T05:01:10;51.30;;;26.80;;
2011;SDS011;1009;51.436;6.972;2023-04-07T05:03:36;49.93;;;23.20;;
2011;SDS011;1009;51.436;6.972;2023-04-07T05:06:03;51.77;;;22.77;;
2011;SDS011;1009;51.436;6.972;2023-04-07T05:08:32;55.03;;;26.10;;
2011;SDS011;1009;51.436;6.972;2023-04-07T05:10:59;51.50;;;24.50;;
2011;SDS011;1009;51.436;6.972;2023-04-07T05:13:25;58.10;;;27.10;;
2011;SDS011;1009;51.436;6.972;2023-04-07T05:15:54;51.10;;;23.57;;
2011;SDS011;1009;51.436;6.972;2023-04-07T05:18:21;55.60;;;28.30;;
2011;SDS011;1009;51.436;6.972;2023-04-07T05:20:48;51.70;;;22.23;;
2011;SDS011;1009;51.436;6.972;2023-04-07T05:23:15;46.10;;;21.73;;
2011;SDS011;1009;51.436;6.972;2023-04-07T05:25:43;44.10;;;22.33;;
2011;SDS011;1009;51.436;6.972;2023-04-07T05:28:09;46.93;;;24.13;;
2011;SDS011;1009;51.436;6.972;2023-04-07T05:30:36;46.10;;;21.07;;
2011;SDS011;1009;51.436;6.972;2023-04-07T05:33:03;44.53;;;22.90;;
2011;SDS011;1009;51.436;6.972;2023-04-07T05:35:30;43.10;;;20.67;;
2011;SDS011;1009;51.436;6.972;2023-04-07T05:37:56;40.43;;;19.20;;
2011;SDS011;1009;51.436;6.972;2023-04-07T05:40:23;37.93;;;18.57;;
2011;SDS011;1009;51.436;6.972;2023-04-07T05:42:51;37.93;;;18.13;;
2011;SDS011;1009;51.436;6.972;2023-04-07T05:45:18;47.43;;;21.53;;
2011;SDS011;1009;51.436;6.972;2023-04-07T05:47:45;51.63;;;22.47;;
2011;SDS011;1009;51.436;6.972;2023-04-07T05:50:14;45.27;;;19.67;;
2011;SDS011;1009;51.436;6.972;2023-04-07T05:52:40;43.70;;;22.00;;
2011;SDS011;1009;51.436;6.972;2023-04-07T05:55:07;38.53;;;18.27;;
2011;SDS011;1009;51.436;6.972;2023-04-07T05:57:34;43.80;;;20.20;;
2011;SDS011;1009;51.436;6.972;2023-04-07T06:00:03;40.50;;;17.03;;
2011;SDS011;1009;51.436;6.972;2023-04-07T06:02:30;40.13;;;19.73;;
2011;SDS011;1009;51.436;6.972;2023-04-07T06:04:56;39.93;;;21.00;;
2011;SDS011;1009;51.436;6.972;2023-04-07T06:07:23;33.20;;;15.43;;
2011;SDS011;1009;51.436;6.972;2023-04-07T06:09:50;35.23;;;18.20;;
2011;SDS011;1009;51.436;6.972;2023-04-07T06:12:16;38.30;;;19.80;;
2011;SDS011;1009;51.436;6.972;2023-04-07T06:14:45;37.73;;;17.43;;
2011;SDS011;1009;51.436;6.972;2023-04-07T06:17:17;39.07;;;18.40;;
2011;SDS011;1009;51.436;6.972;2023-04-07T06:19:44;36.70;;;15.97;;
2011;SDS011;1009;51.436;6.972;2023-04-07T06:22:11;29.20;;;15.37;;
2011;SDS011;1009;51.436;6.972;2023-04-07T06:24:38;36.23;;;14.13;;
2011;SDS011;1009;51.436;6.972;2023-04-07T06:27:04;37.07;;;14.97;;
2011;SDS011;1009;51.436;6.972;2023-04-07T06:29:32;32.33;;;12.87;;
2011;SDS011;1009;51.436;6.972;2023-04-07T06:31:58;33.87;;;15.60;;
2011;SDS011;1009;51.436;6.972;2023-04-07T06:34:27;36.30;;;15.67;;
2011;SDS011;1009;51.436;6.972;2023-04-07T06:36:54;29.93;;;12.93;;
2011;SDS011;1009;51.436;6.972;2023-04-07T06:39:21;27.30;;;12.20;;
2011;SDS011;1009;51.436;6.972;2023-04-07T06:41:48;26.80;;;15.23;;
2011;SDS011;1009;51.436;6.972;2023-04-07T06:44:14;25.93;;;13.80;;
2011;SDS011;1009;51.436;6.972;2023-04-07T06:46:41;23.13;;;12.20;;
2011;SDS011;1009;51.436;6.972;2023-04-07T06:49:08;27.30;;;12.80;;
2011;SDS011;1009;51.436;6.972;2023-04-07T06:51:37;25.73;;;13.60;;
2011;SDS011;1009;51.436;6.972;2023-04-07T06:54:04;24.10;;;12.33;;
2011;SDS011;1009;51.436;6.972;2023-04-07T06:56:32;26.60;;;13.83;;
2011;SDS011;1009;51.436;6.972;2023-04-07T06:58:58;31.33;;;12.60;;
2011;SDS011;1009;51.436;6.972;2023-04-07T07:01:25;28.03;;;13.43;;
2011;SDS011;1009;51.436;6.972;2023-04-07T07:03:52;36.83;;;13.40;;
2011;SDS011;1009;51.436;6.972;2023-04-07T07:06:18;29.90;;;14.10;;
2011;SDS011;1009;51.436;6.972;2023-04-07T07:08:46;31.53;;;12.97;;
2011;SDS011;1009;51.436;6.972;2023-04-07T07:11:13;28.93;;;13.73;;
2011;SDS011;1009;51.436;6.972;2023-04-07T07:13:40;27.20;;;14.67;;
2011;SDS011;1009;51.436;6.972;2023-04-07T07:16:07;26.00;;;14.33;;
2011;SDS011;1009;51.436;6.972;2023-04-07T07:18:34;26.00;;;13.60;;
2011;SDS011;1009;51.436;6.972;2023-04-07T07:21:01;35.90;;;20.23;;
2011;SDS011;1009;51.436;6.972;2023-04-07T07:23:28;37.07;;;17.10;;
2011;SDS011;1009;51.436;6.972;2023-04-07T07:25:56;36.27;;;18.53;;
2011;SDS011;1009;51.436;6.972;2023-04-07T07:28:23;38.40;;;18.80;;
2011;SDS011;1009;51.436;6.972;2023-04-07T07:30:50;40.80;;;19.63;;
2011;SDS011;1009;51.436;6.972;2023-04-07T07:33:16;40.77;;;20.10;;
2011;SDS011;1009;51.436;6.972;2023-04-07T07:35:43;48.40;;;24.50;;
2011;SDS011;1009;51.436;6.972;2023-04-07T07:38:10;45.70;;;20.53;;
2011;SDS011;1009;51.436;6.972;2023-04-07T07:40:37;49.73;;;24.10;;
2011;SDS011;1009;51.436;6.972;2023-04-07T07:43:05;43.43;;;20.10;;
2011;SDS011;1009;51.436;6.972;2023-04-07T07:45:31;45.00;;;23.90;;
2011;SDS011;1009;51.436;6.972;2023-04-07T07:47:58;46.47;;;22.90;;
2011;SDS011;1009;51.436;6.972;2023-04-07T07:50:25;45.03;;;21.97;;
2011;SDS011;1009;51.436;6.972;2023-04-07T07:52:52;41.50;;;21.00;;
2011;SDS011;1009;51.436;6.972;2023-04-07T07:55:18;38.27;;;19.47;;
2011;SDS011;1009;51.436;6.972;2023-04-07T07:57:45;39.87;;;20.10;;
2011;SDS011;1009;51.436;6.972;2023-04-07T08:00:14;39.43;;;19.00;;
2011;SDS011;1009;51.436;6.972;2023-04-07T08:02:41;37.20;;;18.80;;
2011;SDS011;1009;51.436;6.972;2023-04-07T08:05:07;40.30;;;20.13;;
2011;SDS011;1009;51.436;6.972;2023-04-07T08:07:35;42.37;;;21.13;;
2011;SDS011;1009;51.436;6.972;2023-04-07T08:10:02;40.80;;;19.17;;
2011;SDS011;1009;51.436;6.972;2023-04-07T08:12:28;41.50;;;19.17;;
2011;SDS011;1009;51.436;6.972;2023-04-07T08:14:55;37.93;;;19.03;;
2011;SDS011;1009;51.436;6.972;2023-04-07T08:17:23;35.07;;;19.57;;
2011;SDS011;1009;51.436;6.972;2023-04-07T08:19:50;33.73;;;16.47;;
2011;SDS011;1009;51.436;6.972;2023-04-07T08:22:16;27.33;;;15.93;;
2011;SDS011;1009;51.436;6.972;2023-04-07T08:24:43;31.83;;;16.97;;
2011;SDS011;1009;51.436;6.972;2023-04-07T08:27:11;28.47;;;13.43;;
2011;SDS011;1009;51.436;6.972;2023-04-07T08:29:38;26.20;;;12.63;;
2011;SDS011;1009;51.436;6.972;2023-04-07T08:32:04;29.43;;;13.13;;
2011;SDS011;1009;51.436;6.972;2023-04-07T08:34:32;28.47;;;14.00;;
2011;SDS011;1009;51.436;6.972;2023-04-07T08:36:59;28.10;;;14.03;;
2011;SDS011;1009;51.436;6.972;2023-04-07T08:39:26;29.20;;;15.10;;
2011;SDS011;1009;51.436;6.972;2023-04-07T08:41:52;34.20;;;16.97;;
2011;SDS011;1009;51.436;6.972;2023-04-07T08:44:21;34.13;;;19.03;;
2011;SDS011;1009;51.436;6.972;2023-04-07T08:46:48;37.50;;;18.17;;
2011;SDS011;1009;51.436;6.972;2023-04-07T08:49:17;32.03;;;15.70;;
2011;SDS011;1009;51.436;6.972;2023-04-07T08:51:47;31.47;;;17.57;;
2011;SDS011;1009;51.436;6.972;2023-04-07T08:54:15;28.90;;;15.63;;
2011;SDS011;1009;51.436;6.972;2023-04-07T08:56:45;25.87;;;14.57;;
2011;SDS011;1009;51.436;6.972;2023-04-07T08:59:13;29.30;;;16.23;;
2011;SDS011;1009;51.436;6.972;2023-04-07T09:01:42;30.27;;;16.60;;
2011;SDS011;1009;51.436;6.972;2023-04-07T09:04:09;32.10;;;17.50;;
2011;SDS011;1009;51.436;6.972;2023-04-07T09:06:36;33.33;;;18.80;;
2011;SDS011;1009;51.436;6.972;2023-04-07T09:09:04;25.67;;;14.90;;
2011;SDS011;1009;51.436;6.972;2023-04-07T09:11:33;24.03;;;14.40;;
2011;SDS011;1009;51.436;6.972;2023-04-07T09:14:01;29.47;;;14.40;;
2011;SDS011;1009;51.436;6.972;2023-04-07T09:16:28;25.80;;;14.47;;
2011;SDS011;1009;51.436;6.972;2023-04-07T09:18:55;26.70;;;14.67;;
2011;SDS011;1009;51.436;6.972;2023-04-07T09:21:22;30.57;;;15.73;;
2011;SDS011;1009;51.436;6.972;2023-04-07T09:23:49;31.47;;;15.37;;
2011;SDS011;1009;51.436;6.972;2023-04-07T09:26:21;36.23;;;16.50;;
2011;SDS011;1009;51.436;6.972;2023-04-07T09:28:50;24.30;;;13.83;;
2011;SDS011;1009;51.436;6.972;2023-04-07T09:31:18;28.70;;;15.17;;
2011;SDS011;1009;51.436;6.972;2023-04-07T09:33:46;26.60;;;13.93;;
2011;SDS011;1009;51.436;6.972;2023-04-07T09:36:13;26.97;;;13.43;;
2011;SDS011;1009;51.436;6.972;2023-04-07T09:38:40;23.30;;;12.40;;
2011;SDS011;1009;51.436;6.972;2023-04-07T09:41:08;25.30;;;12.67;;
2011;SDS011;1009;51.436;6.972;2023-04-07T09:43:38;29.70;;;12.47;;
2011;SDS011;1009;51.436;6.972;2023-04-07T09:46:06;23.40;;;12.07;;
2011;SDS011;1009;51.436;6.972;2023-04-07T09:48:34;30.80;;;12.33;;
2011;SDS011;1009;51.436;6.972;2023-04-07T09:51:04;20.10;;;10.97;;
2011;SDS011;1009;51.436;6.972;2023-04-07T09:53:39;17.03;;;9.73;;
2011;SDS011;1009;51.436;6.972;2023-04-07T09:56:07;20.23;;;11.87;;
2011;SDS011;1009;51.436;6.972;2023-04-07T09:58:34;21.80;;;12.10;;
2011;SDS011;1009;51.436;6.972;2023-04-07T10:01:05;21.83;;;11.10;;
2011;SDS011;1009;51.436;6.972;2023-04-07T10:03:33;23.50;;;11.40;;
2011;SDS011;1009;51.436;6.972;2023-04-07T10:06:00;20.40;;;11.37;;
2011;SDS011;1009;51.436;6.972;2023-04-07T10:08:27;24.50;;;12.33;;
2011;SDS011;1009;51.436;6.972;2023-04-07T10:10:56;24.37;;;13.30;;
2011;SDS011;1009;51.436;6.972;2023-04-07T10:13:23;30.80;;;14.40;;
2011;SDS011;1009;51.436;6.972;2023-04-07T10:15:52;30.40;;;13.40;;
2011;SDS011;1009;51.436;6.972;2023-04-07T10:18:20;24.47;;;13.43;;
2011;SDS011;1009;51.436;6.972;2023-04-07T10:20:50;30.80;;;15.53;;
2011;SDS011;1009;51.436;6.972;2023-04-07T10:23:19;32.37;;;14.97;;
2011;SDS011;1009;51.436;6.972;2023-04-07T10:25:49;26.87;;;13.93;;
2011;SDS011;1009;51.436;6.972;2023-04-07T10:28:18;31.60;;;16.00;;
2011;SDS011;1009;51.436;6.972;2023-04-07T10:30:48;29.93;;;18.10;;
2011;SDS011;1009;51.436;6.972;2023-04-07T10:33:17;28.13;;;16.30;;
2011;SDS011;1009;51.436;6.972;2023-04-07T10:36:04;31.53;;;14.63;;
2011;SDS011;1009;51.436;6.972;2023-04-07T10:38:32;28.50;;;17.67;;
2011;SDS011;1009;51.436;6.972;2023-04-07T10:40:59;30.60;;;16.27;;
2011;SDS011;1009;51.436;6.972;2023-04-07T10:43:35;40.13;;;16.17;;
2011;SDS011;1009;51.436;6.972;2023-04-07T10:46:03;32.33;;;16.17;;
2011;SDS011;1009;51.436;6.972;2023-04-07T10:48:31;31.53;;;17.97;;
2011;SDS011;1009;51.436;6.972;2023-04-07T10:51:14;26.73;;;13.93;;
2011;SDS011;1009;51.436;6.972;2023-04-07T10:57:05;28.33;;;13.90;;
2011;SDS011;1009;51.436;6.972;2023-04-07T10:59:34;22.83;;;12.70;;
2011;SDS011;1009;51.436;6.972;2023-04-07T11:05:00;21.00;;;12.50;;
2011;SDS011;1009;51.436;6.972;2023-04-07T11:07:44;29.03;;;14.30;;
2011;SDS011;1009;51.436;6.972;2023-04-07T11:10:13;29.93;;;15.40;;
2011;SDS011;1009;51.436;6.972;2023-04-07T11:12:41;24.67;;;14.50;;
2011;SDS011;1009;51.436;6.972;2023-04-07T11:15:20;34.13;;;15.73;;
2011;SDS011;1009;51.436;6.972;2023-04-07T11:20:44;24.33;;;12.60;;
2011;SDS011;1009;51.436;6.972;2023-04-07T11:23:13;27.50;;;13.77;;
2011;SDS011;1009;51.436;6.972;2023-04-07T11:25:41;20.87;;;12.13;;
2011;SDS011;1009;51.436;6.972;2023-04-07T11:28:09;20.33;;;12.43;;
2011;SDS011;1009;51.436;6.972;2023-04-07T11:30:38;20.00;;;11.03;;
2011;SDS011;1009;51.436;6.972;2023-04-07T11:33:13;22.37;;;12.80;;
2011;SDS011;1009;51.436;6.972;2023-04-07T11:35:47;20.10;;;11.70;;
2011;SDS011;1009;51.436;6.972;2023-04-07T11:38:14;26.50;;;13.30;;
2011;SDS011;1009;51.436;6.972;2023-04-07T11:40:41;21.40;;;12.60;;
2011;SDS011;1009;51.436;6.972;2023-04-07T11:43:14;21.80;;;12.23;;
2011;SDS011;1009;51.436;6.972;2023-04-07T11:45:45;21.97;;;12.70;;
2011;SDS011;1009;51.436;6.972;2023-04-07T11:48:28;24.80;;;14.20;;
2011;SDS011;1009;51.436;6.972;2023-04-07T11:50:56;25.53;;;12.27;;
2011;SDS011;1009;51.436;6.972;2023-04-07T11:53:24;22.47;;;12.90;;
2011;SDS011;1009;51.436;6.972;2023-04-07T11:56:05;18.47;;;11.97;;
2011;SDS011;1009;51.436;6.972;2023-04-07T11:58:45;23.90;;;12.80;;
2011;SDS011;1009;51.436;6.972;2023-04-07T12:01:12;21.33;;;12.20;;
2011;SDS011;1009;51.436;6.972;2023-04-07T12:03:53;23.60;;;13.20;;
2011;SDS011;1009;51.436;6.972;2023-04-07T12:06:27;26.03;;;13.10;;
2011;SDS011;1009;51.436;6.972;2023-04-07T12:08:54;21.13;;;12.80;;
2011;SDS011;1009;51.436;6.972;2023-04-07T12:11:21;19.40;;;11.93;;
2011;SDS011;1009;51.436;6.972;2023-04-07T12:13:49;18.70;;;11.40;;
2011;SDS011;1009;51.436;6.972;2023-04-07T12:16:15;21.70;;;11.87;;
2011;SDS011;1009;51.436;6.972;2023-04-07T12:18:43;18.33;;;11.40;;
2011;SDS011;1009;51.436;6.972;2023-04-07T12:21:09;20.90;;;12.07;;
2011;SDS011;1009;51.436;6.972;2023-04-07T12:23:37;23.73;;;12.10;;
2011;SDS011;1009;51.436;6.972;2023-04-07T12:26:05;18.77;;;10.53;;
2011;SDS011;1009;51.436;6.972;2023-04-07T12:28:32;19.43;;;9.53;;
2011;SDS011;1009;51.436;6.972;2023-04-07T12:30:58;15.90;;;9.20;;
2011;SDS011;1009;51.436;6.972;2023-04-07T12:33:25;19.17;;;10.60;;
2011;SDS011;1009;51.436;6.972;2023-04-07T12:35:52;18.30;;;11.10;;
2011;SDS011;1009;51.436;6.972;2023-04-07T12:38:18;24.27;;;11.03;;
2011;SDS011;1009;51.436;6.972;2023-04-07T12:40:47;21.03;;;12.40;;
2011;SDS011;1009;51.436;6.972;2023-04-07T12:43:13;25.23;;;12.87;;
2011;SDS011;1009;51.436;6.972;2023-04-07T12:45:40;23.97;;;13.20;;
2011;SDS011;1009;51.436;6.972;2023-04-07T12:48:07;21.93;;;14.13;;
2011;SDS011;1009;51.436;6.972;2023-04-07T12:50:34;22.00;;;13.83;;
2011;SDS011;1009;51.436;6.972;2023-04-07T12:53:01;21.83;;;13.50;;
2011;SDS011;1009;51.436;6.972;2023-04-07T12:55:29;20.10;;;13.10;;
2011;SDS011;1009;51.436;6.972;2023-04-07T12:57:58;26.00;;;14.87;;
2011;SDS011;1009;51.436;6.972;2023-04-07T13:00:25;26.80;;;14.10;;
2011;SDS011;1009;51.436;6.972;2023-04-07T13:02:52;28.80;;;16.87;;
2011;SDS011;1009;51.436;6.972;2023-04-07T13:05:19;26.10;;;15.80;;
2011;SDS011;1009;51.436;6.972;2023-04-07T13:07:45;22.97;;;14.70;;
2011;SDS011;1009;51.436;6.972;2023-04-07T13:10:12;29.57;;;15.73;;
2011;SDS011;1009;51.436;6.972;2023-04-07T13:12:39;21.67;;;13.90;;
2011;SDS011;1009;51.436;6.972;2023-04-07T13:15:07;24.57;;;15.47;;
2011;SDS011;1009;51.436;6.972;2023-04-07T13:17:34;26.63;;;17.30;;
2011;SDS011;1009;51.436;6.972;2023-04-07T13:20:02;23.43;;;16.53;;
2011;SDS011;1009;51.436;6.972;2023-04-07T13:22:29;25.30;;;16.13;;
2011;SDS011;1009;51.436;6.972;2023-04-07T13:24:56;24.10;;;15.83;;
2011;SDS011;1009;51.436;6.972;2023-04-07T13:27:23;22.43;;;13.87;;
2011;SDS011;1009;51.436;6.972;2023-04-07T13:29:50;22.80;;;14.53;;
2011;SDS011;1009;51.436;6.972;2023-04-07T13:32:18;25.93;;;15.63;;
2011;SDS011;1009;51.436;6.972;2023-04-07T13:34:45;26.33;;;17.10;;
2011;SDS011;1009;51.436;6.972;2023-04-07T13:37:11;26.20;;;16.70;;
2011;SDS011;1009;51.436;6.972;2023-04-07T13:39:38;29.60;;;18.37;;
2011;SDS011;1009;51.436;6.972;2023-04-07T13:42:05;27.20;;;18.40;;
2011;SDS011;1009;51.436;6.972;2023-04-07T13:44:33;33.83;;;18.47;;
2011;SDS011;1009;51.436;6.972;2023-04-07T13:47:01;30.33;;;19.03;;
2011;SDS011;1009;51.436;6.972;2023-04-07T13:49:29;29.23;;;18.50;;
2011;SDS011;1009;51.436;6.972;2023-04-07T13:51:56;32.53;;;19.40;;
2011;SDS011;1009;51.436;6.972;2023-04-07T18:22:41;23.50;;;11.37;;
2011;SDS011;1009;51.436;6.972;2023-04-07T18:25:08;22.43;;;13.80;;
2011;SDS011;1009;51.436;6.972;2023-04-07T18:27:35;25.73;;;13.17;;
2011;SDS011;1009;51.436;6.972;2023-04-07T18:30:02;20.97;;;13.87;;
2011;SDS011;1009;51.436;6.972;2023-04-07T18:32:30;24.97;;;14.20;;
2011;SDS011;1009;51.436;6.972;2023-04-07T18:34:56;19.77;;;13.37;;
2011;SDS011;1009;51.436;6.972;2023-04-07T18:37:23;24.97;;;13.60;;
2011;SDS011;1009;51.436;6.972;2023-04-07T18:39:51;21.87;;;13.60;;
2011;SDS011;1009;51.436;6.972;2023-04-07T18:42:18;23.93;;;14.50;;
2011;SDS011;1009;51.436;6.972;2023-04-07T18:44:45;23.07;;;14.97;;
2011;SDS011;1009;51.436;6.972;2023-04-07T18:47:13;26.37;;;16.23;;
2011;SDS011;1009;51.436;6.972;2023-04-07T18:49:40;26.40;;;16.70;;
2011;SDS011;1009;51.436;6.972;2023-04-07T18:52:09;26.93;;;16.43;;
2011;SDS011;1009;51.436;6.972;2023-04-07T18:54:36;28.47;;;17.90;;
2011;SDS011;1009;51.436;6.972;2023-04-07T18:57:04;29.80;;;17.70;;
2011;SDS011;1009;51.436;6.972;2023-04-07T18:59:31;29.30;;;17.30;;
2011;SDS011;1009;51.436;6.972;2023-04-07T19:01:57;34.10;;;18.23;;
2011;SDS011;1009;51.436;6.972;2023-04-07T19:04:24;29.03;;;16.97;;
2011;SDS011;1009;51.436;6.972;2023-04-07T19:06:51;30.80;;;18.90;;
2011;SDS011;1009;51.436;6.972;2023-04-07T19:09:18;31.43;;;17.80;;
2011;SDS011;1009;51.436;6.972;2023-04-07T19:11:45;29.77;;;19.30;;
2011;SDS011;1009;51.436;6.972;2023-04-07T19:14:14;28.60;;;17.70;;
2011;SDS011;1009;51.436;6.972;2023-04-07T19:16:40;28.37;;;18.17;;
2011;SDS011;1009;51.436;6.972;2023-04-07T19:19:08;28.03;;;17.87;;
2011;SDS011;1009;51.436;6.972;2023-04-07T19:21:35;30.60;;;19.00;;
2011;SDS011;1009;51.436;6.972;2023-04-07T19:24:04;29.43;;;18.33;;
2011;SDS011;1009;51.436;6.972;2023-04-07T19:26:31;34.73;;;21.10;;
2011;SDS011;1009;51.436;6.972;2023-04-07T19:28:59;29.60;;;17.27;;